createdAt,value
2022-07-29T00:02:01.936Z,99220.28
2022-07-29T00:04:30.199Z,99220.72
2022-07-29T00:06:57.974Z,99219.09
2022-07-29T00:09:25.747Z,99222.78
2022-07-29T00:11:54.485Z,99217.56
2022-07-29T00:14:22.296Z,99224.28
2022-07-29T00:16:50.130Z,99229.50
2022-07-29T00:19:18.348Z,99220.56
2022-07-29T00:21:46.126Z,99218.94
2022-07-29T00:24:14.218Z,99222.97
2022-07-29T00:26:42.456Z,99225.56
2022-07-29T00:31:58.737Z,99221.13
2022-07-29T00:34:44.907Z,99224.97
2022-07-29T00:37:12.858Z,99216.28
2022-07-29T00:39:40.599Z,99233.69
2022-07-29T00:42:09.028Z,99221.50
2022-07-29T00:44:38.920Z,99224.25
2022-07-29T00:47:07.298Z,99223.09
2022-07-29T00:49:35.517Z,99220.59
2022-07-29T00:52:05.093Z,99221.25
2022-07-29T00:54:34.598Z,99216.22
2022-07-29T00:57:02.729Z,99216.78
2022-07-29T00:59:34.653Z,99222.22
2022-07-29T01:02:06.270Z,99217.63
2022-07-29T01:04:34.709Z,99214.91
2022-07-29T01:07:03.666Z,99218.22
2022-07-29T01:09:45.165Z,99209.50
2022-07-29T01:12:19.088Z,99215.53
2022-07-29T01:14:47.274Z,99215.63
2022-07-29T01:17:18.358Z,99210.53
2022-07-29T01:20:12.555Z,99213.09
2022-07-29T01:23:02.402Z,99217.22
2022-07-29T01:25:55.886Z,99211.13
2022-07-29T01:28:49.037Z,99221.25
2022-07-29T01:31:25.296Z,99215.44
2022-07-29T01:34:01.456Z,99205.81
2022-07-29T01:36:42.497Z,99210.09
2022-07-29T01:39:13.827Z,99212.12
2022-07-29T01:41:50.447Z,99207.97
2022-07-29T01:44:47.425Z,99204.91
2022-07-29T01:47:21.507Z,99207.25
2022-07-29T01:49:53.205Z,99212.41
2022-07-29T01:52:51.276Z,99202.41
2022-07-29T01:55:21.686Z,99209.56
2022-07-29T01:57:50.806Z,99207.00
2022-07-29T02:00:18.947Z,99204.12
2022-07-29T02:02:48.906Z,99204.12
2022-07-29T02:05:18.912Z,99201.13
2022-07-29T02:07:48.731Z,99204.81
2022-07-29T02:10:16.697Z,99207.78
2022-07-29T02:12:50.601Z,99204.47
2022-07-29T02:15:20.096Z,99206.31
2022-07-29T02:17:58.016Z,99195.69
2022-07-29T02:20:28.038Z,99203.81
2022-07-29T02:22:56.946Z,99197.34
2022-07-29T02:25:25.857Z,99198.03
2022-07-29T02:28:07.746Z,99198.31
2022-07-29T02:30:41.616Z,99194.34
2022-07-29T02:33:11.526Z,99204.94
2022-07-29T02:35:39.836Z,99192.87
2022-07-29T02:38:28.136Z,99200.25
2022-07-29T02:40:57.240Z,99203.75
2022-07-29T02:43:26.155Z,99194.00
2022-07-29T02:45:54.427Z,99187.78
2022-07-29T02:48:29.351Z,99195.56
2022-07-29T02:51:05.335Z,99190.78
2022-07-29T02:53:34.926Z,99191.28
2022-07-29T02:56:10.395Z,99191.44
2022-07-29T02:58:42.089Z,99192.41
2022-07-29T03:01:22.149Z,99195.41
2022-07-29T03:03:52.329Z,99194.47
2022-07-29T03:06:28.858Z,99195.44
2022-07-29T03:09:13.235Z,99194.00
2022-07-29T03:11:50.116Z,99196.28
2022-07-29T03:14:20.809Z,99196.28
2022-07-29T03:16:49.725Z,99192.41
2022-07-29T03:19:18.117Z,99192.94
2022-07-29T03:21:46.277Z,99191.78
2022-07-29T03:24:35.738Z,99194.75
2022-07-29T03:27:05.177Z,99195.94
2022-07-29T03:29:34.378Z,99196.78
2022-07-29T03:32:08.162Z,99200.25
2022-07-29T03:34:38.665Z,99199.13
2022-07-29T03:37:07.340Z,99199.78
2022-07-29T03:39:39.598Z,99206.69
2022-07-29T03:42:09.028Z,99202.34
2022-07-29T03:44:37.745Z,99193.16
2022-07-29T03:47:07.019Z,99196.84
2022-07-29T03:49:37.426Z,99202.53
2022-07-29T03:52:06.178Z,99198.34
2022-07-29T03:54:34.195Z,99192.53
2022-07-29T03:57:02.950Z,99198.16
2022-07-29T03:59:32.031Z,99196.06
2022-07-29T04:02:00.457Z,99198.50
2022-07-29T04:04:28.991Z,99200.28
2022-07-29T04:06:56.847Z,99216.25
2022-07-29T04:09:24.716Z,99201.13
2022-07-29T04:12:02.665Z,99207.28
2022-07-29T04:14:33.227Z,99209.19
2022-07-29T04:17:05.024Z,99207.59
2022-07-29T04:19:32.934Z,99212.12
2022-07-29T04:22:03.867Z,99211.44
2022-07-29T04:24:31.774Z,99207.13
2022-07-29T04:26:59.586Z,99212.34
2022-07-29T04:29:27.785Z,99207.75
2022-07-29T04:31:55.587Z,99215.75
2022-07-29T04:34:23.414Z,99216.06
2022-07-29T04:36:56.825Z,99215.63
2022-07-29T04:39:25.080Z,99211.28
2022-07-29T04:41:57.026Z,99213.28
2022-07-29T04:44:28.631Z,99217.22
2022-07-29T04:46:58.137Z,99209.37
2022-07-29T04:49:26.256Z,99214.91
2022-07-29T04:51:54.032Z,99210.72
2022-07-29T04:54:22.116Z,99209.84
2022-07-29T04:56:50.145Z,99208.72
2022-07-29T04:59:17.899Z,99199.63
2022-07-29T05:01:46.260Z,99206.97
2022-07-29T05:04:14.335Z,99211.69
2022-07-29T05:06:42.356Z,99212.97
2022-07-29T05:09:10.734Z,99218.25
2022-07-29T05:11:38.505Z,99212.66
2022-07-29T05:14:06.230Z,99205.78
2022-07-29T05:16:34.669Z,99213.16
2022-07-29T05:19:02.604Z,99204.78
2022-07-29T05:21:30.364Z,99214.00
2022-07-29T05:23:58.456Z,99215.97
2022-07-29T05:26:26.181Z,99222.66
2022-07-29T05:28:55.009Z,99212.69
2022-07-29T05:31:23.193Z,99215.97
2022-07-29T05:33:51.084Z,99213.53
2022-07-29T05:36:19.355Z,99216.25
2022-07-29T05:38:47.500Z,99217.16
2022-07-29T05:41:15.516Z,99219.91
2022-07-29T05:43:43.297Z,99217.16
2022-07-29T05:46:11.378Z,99217.22
2022-07-29T05:48:40.111Z,99226.09
2022-07-29T05:51:07.966Z,99224.09
2022-07-29T05:53:36.115Z,99233.00
2022-07-29T05:56:07.226Z,99225.34
2022-07-29T05:58:35.187Z,99227.25
2022-07-29T06:01:03.811Z,99226.69
2022-07-29T06:03:31.945Z,99236.44
2022-07-29T06:05:59.696Z,99226.63
2022-07-29T06:08:27.397Z,99229.88
2022-07-29T06:10:55.615Z,99224.06
2022-07-29T06:13:23.533Z,99225.50
2022-07-29T06:15:51.297Z,99225.41
2022-07-29T06:18:19.473Z,99226.63
2022-07-29T06:20:47.708Z,99235.62
2022-07-29T06:23:15.569Z,99234.62
2022-07-29T06:25:43.854Z,99240.38
2022-07-29T06:28:11.938Z,99239.84
2022-07-29T06:30:40.617Z,99234.44
2022-07-29T06:33:08.847Z,99231.94
2022-07-29T06:35:42.277Z,99238.66
2022-07-29T06:38:30.897Z,99238.97
2022-07-29T06:41:02.674Z,99247.72
2022-07-29T06:43:33.260Z,99244.81
2022-07-29T06:46:06.253Z,99243.38
2022-07-29T06:48:34.859Z,99252.13
2022-07-29T06:51:03.184Z,99250.25
2022-07-29T06:53:31.813Z,99246.16
2022-07-29T06:56:01.106Z,99243.06
2022-07-29T06:58:29.157Z,99243.09
2022-07-29T07:00:58.102Z,99244.34
2022-07-29T07:03:26.471Z,99250.28
2022-07-29T07:05:55.305Z,99244.47
2022-07-29T07:08:24.675Z,99236.97
2022-07-29T07:10:53.468Z,99248.47
2022-07-29T07:13:21.321Z,99248.09
2022-07-29T07:15:49.598Z,99243.94
2022-07-29T07:18:18.094Z,99241.78
2022-07-29T07:20:46.704Z,99239.81
2022-07-29T07:23:14.520Z,99238.31
2022-07-29T07:25:43.247Z,99236.63
2022-07-29T07:28:11.418Z,99248.53
2022-07-29T07:30:39.342Z,99236.19
2022-07-29T07:33:07.425Z,99249.41
2022-07-29T07:35:35.263Z,99244.53
2022-07-29T07:38:03.155Z,99236.00
2022-07-29T07:40:31.437Z,99236.63
2022-07-29T07:42:59.257Z,99231.75
2022-07-29T07:45:27.537Z,99239.87
2022-07-29T07:47:55.849Z,99236.63
2022-07-29T07:50:23.692Z,99238.37
2022-07-29T07:52:58.975Z,99225.38
2022-07-29T07:55:27.580Z,99232.09
2022-07-29T07:57:56.186Z,99235.62
2022-07-29T08:00:24.156Z,99240.13
2022-07-29T08:02:52.433Z,99237.00
2022-07-29T08:05:20.809Z,99237.09
2022-07-29T08:07:48.974Z,99230.53
2022-07-29T08:10:37.410Z,99232.94
2022-07-29T08:13:06.796Z,99232.41
2022-07-29T08:15:35.268Z,99232.19
2022-07-29T08:18:08.790Z,99228.16
2022-07-29T08:20:39.453Z,99229.41
2022-07-29T08:23:09.753Z,99229.53
2022-07-29T08:25:42.728Z,99224.09
2022-07-29T08:28:10.625Z,99228.69
2022-07-29T08:30:38.837Z,99231.87
2022-07-29T08:33:06.715Z,99216.75
2022-07-29T08:35:35.753Z,99223.41
2022-07-29T08:38:04.808Z,99218.84
2022-07-29T08:40:33.006Z,99223.53
2022-07-29T08:43:08.894Z,99225.06
2022-07-29T08:45:48.999Z,99232.00
2022-07-29T08:48:22.263Z,99222.19
2022-07-29T08:50:56.746Z,99230.31
2022-07-29T08:53:27.978Z,99222.59
2022-07-29T08:55:57.265Z,99214.59
2022-07-29T08:58:25.989Z,99221.25
2022-07-29T09:00:56.137Z,99212.19
2022-07-29T09:03:26.201Z,99222.38
2022-07-29T09:05:54.434Z,99218.78
2022-07-29T09:08:22.768Z,99212.41
2022-07-29T09:10:52.207Z,99213.06
2022-07-29T09:13:20.197Z,99219.03
2022-07-29T09:15:48.085Z,99212.03
2022-07-29T09:18:36.208Z,99213.06
2022-07-29T09:21:23.826Z,99208.28
2022-07-29T09:24:13.949Z,99212.84
2022-07-29T09:26:46.602Z,99210.38
2022-07-29T09:29:19.271Z,99200.81
2022-07-29T09:31:49.593Z,99200.44
2022-07-29T09:34:23.824Z,99195.88
2022-07-29T09:36:52.949Z,99197.72
2022-07-29T09:39:39.136Z,99190.47
2022-07-29T09:42:07.560Z,99195.75
2022-07-29T09:44:53.985Z,99190.34
2022-07-29T09:47:25.157Z,99190.16
2022-07-29T09:50:00.576Z,99184.03
2022-07-29T09:52:30.496Z,99188.22
2022-07-29T09:55:09.547Z,99179.84
2022-07-29T09:57:37.695Z,99182.56
2022-07-29T10:00:14.633Z,99180.53
2022-07-29T10:02:47.368Z,99168.56
2022-07-29T10:05:26.127Z,99177.44
2022-07-29T10:07:57.488Z,99176.31
2022-07-29T10:10:28.467Z,99175.53
2022-07-29T10:13:06.359Z,99172.88
2022-07-29T10:15:40.584Z,99169.13
2022-07-29T10:18:09.918Z,99162.25
2022-07-29T10:20:38.368Z,99167.28
2022-07-29T10:23:06.904Z,99168.34
2022-07-29T10:25:35.456Z,99169.59
2022-07-29T10:28:04.024Z,99172.63
2022-07-29T10:30:32.288Z,99159.44
2022-07-29T10:33:31.675Z,99158.75
2022-07-29T10:36:31.955Z,99152.47
2022-07-29T10:39:13.026Z,99157.41
2022-07-29T10:42:04.827Z,99148.50
2022-07-29T10:44:34.517Z,99154.25
2022-07-29T10:47:02.853Z,99148.72
2022-07-29T10:49:31.290Z,99158.53
2022-07-29T10:52:07.765Z,99144.31
2022-07-29T10:54:48.865Z,99137.69
2022-07-29T10:57:18.275Z,99143.47
2022-07-29T10:59:53.086Z,99141.28
2022-07-29T11:02:42.623Z,99127.91
2022-07-29T11:05:20.446Z,99129.84
2022-07-29T11:08:19.516Z,99132.37
2022-07-29T11:10:49.210Z,99124.75
2022-07-29T11:13:49.041Z,99131.28
2022-07-29T11:16:20.112Z,99127.84
2022-07-29T11:19:14.578Z,99127.22
2022-07-29T11:24:35.011Z,99112.06
2022-07-29T11:27:18.005Z,99109.41
2022-07-29T11:29:56.478Z,99112.75
2022-07-29T11:32:25.705Z,99098.19
2022-07-29T11:35:37.930Z,99091.75
2022-07-29T11:38:23.435Z,99099.25
2022-07-29T11:41:26.018Z,99098.47
2022-07-29T11:43:59.774Z,99099.47
2022-07-29T11:46:54.077Z,99102.34
2022-07-29T11:49:32.207Z,99098.66
2022-07-29T11:52:04.606Z,99097.09
2022-07-29T11:54:57.257Z,99094.13
2022-07-29T11:57:36.041Z,99095.69
2022-07-29T12:02:57.708Z,99092.19
2022-07-29T12:05:48.060Z,99079.09
2022-07-29T12:07:03.249Z,99084.34
2022-07-29T12:08:24.048Z,99081.44
2022-07-29T12:10:52.612Z,99082.03
2022-07-29T12:13:22.356Z,99080.88
2022-07-29T12:16:02.417Z,99077.94
2022-07-29T12:18:30.737Z,99077.84
2022-07-29T12:21:06.299Z,99071.44
2022-07-29T12:23:36.032Z,99069.66
2022-07-29T12:26:10.582Z,99065.50
2022-07-29T12:28:40.042Z,99060.38
2022-07-29T12:31:44.141Z,99065.38
2022-07-29T12:34:03.368Z,99054.31
2022-07-29T12:36:31.557Z,99050.09
2022-07-29T12:38:59.259Z,99046.81
2022-07-29T12:41:30.149Z,99041.88
2022-07-29T12:43:57.969Z,99048.22
2022-07-29T12:46:25.922Z,99042.16
2022-07-29T12:48:58.579Z,99041.06
2022-07-29T12:51:38.587Z,99034.47
2022-07-29T12:54:12.245Z,99032.22
2022-07-29T12:56:45.319Z,99033.44
2022-07-29T12:59:21.465Z,99022.81
2022-07-29T13:01:51.718Z,99017.19
2022-07-29T13:04:31.079Z,99019.94
2022-07-29T13:07:06.623Z,99017.31
2022-07-29T13:09:38.908Z,99024.19
2022-07-29T13:12:11.661Z,99020.75
2022-07-29T13:14:45.111Z,99018.28
2022-07-29T13:17:14.100Z,99009.09
2022-07-29T13:19:52.716Z,99004.41
2022-07-29T13:22:22.812Z,99007.78
2022-07-29T13:24:52.016Z,99006.38
2022-07-29T13:27:21.407Z,99006.56
2022-07-29T13:29:52.408Z,98997.78
2022-07-29T13:32:28.673Z,98993.97
2022-07-29T13:34:58.237Z,98987.47
2022-07-29T13:37:27.429Z,98991.12
2022-07-29T13:39:57.043Z,98989.31
2022-07-29T13:42:26.013Z,98986.59
2022-07-29T13:44:54.198Z,98987.03
2022-07-29T13:47:23.149Z,98983.91
2022-07-29T13:50:02.362Z,98982.72
2022-07-29T13:52:30.674Z,98973.22
2022-07-29T13:54:58.634Z,98972.37
2022-07-29T13:57:26.865Z,98975.81
2022-07-29T13:59:54.788Z,98963.56
2022-07-29T14:02:25.415Z,98969.94
2022-07-29T14:04:55.409Z,98966.16
2022-07-29T14:07:23.615Z,98967.84
2022-07-29T14:09:51.477Z,98968.69
2022-07-29T14:12:20.235Z,98964.06
2022-07-29T14:14:48.156Z,98961.97
2022-07-29T14:17:16.669Z,98958.31
2022-07-29T14:19:44.863Z,98945.84
2022-07-29T14:22:12.680Z,98949.94
2022-07-29T14:24:41.012Z,98951.38
2022-07-29T14:27:09.472Z,98950.31
2022-07-29T14:29:38.789Z,98948.25
2022-07-29T14:32:08.465Z,98943.03
2022-07-29T14:34:37.568Z,98950.13
2022-07-29T14:37:09.596Z,98940.59
2022-07-29T14:39:44.517Z,98932.13
2022-07-29T14:42:12.902Z,98936.06
2022-07-29T14:44:42.705Z,98928.75
2022-07-29T14:47:11.437Z,98921.34
2022-07-29T14:49:39.613Z,98921.25
2022-07-29T14:52:07.457Z,98922.94
2022-07-29T14:54:35.487Z,98926.44
2022-07-29T14:57:03.626Z,98918.09
2022-07-29T14:59:31.466Z,98920.47
2022-07-29T15:02:00.066Z,98911.22
2022-07-29T15:04:28.006Z,98908.38
2022-07-29T15:06:56.200Z,98915.41
2022-07-29T15:09:24.777Z,98912.22
2022-07-29T15:11:52.706Z,98901.75
2022-07-29T15:14:20.444Z,98905.50
2022-07-29T15:16:48.846Z,98893.44
2022-07-29T15:19:16.817Z,98892.59
2022-07-29T15:21:59.266Z,98891.22
2022-07-29T15:24:28.082Z,98899.81
2022-07-29T15:26:56.345Z,98901.47
2022-07-29T15:29:24.406Z,98889.72
2022-07-29T15:31:52.632Z,98893.84
2022-07-29T15:34:21.901Z,98894.66
2022-07-29T15:36:52.584Z,98890.50
2022-07-29T15:39:22.090Z,98884.19
2022-07-29T15:41:50.740Z,98892.25
2022-07-29T15:44:19.359Z,98896.53
2022-07-29T15:47:06.356Z,98884.88
2022-07-29T15:49:47.111Z,98884.62
2022-07-29T15:52:25.684Z,98880.56
2022-07-29T15:54:56.197Z,98881.37
2022-07-29T15:57:25.102Z,98886.63
2022-07-29T15:59:52.909Z,98877.56
2022-07-29T16:02:20.833Z,98872.94
2022-07-29T16:04:49.493Z,98878.13
2022-07-29T16:07:17.898Z,98877.19
2022-07-29T16:09:50.763Z,98870.00
2022-07-29T16:12:21.477Z,98876.16
2022-07-29T16:14:51.375Z,98869.06
2022-07-29T16:17:19.837Z,98877.75
2022-07-29T16:19:48.147Z,98868.91
2022-07-29T16:22:16.147Z,98875.28
2022-07-29T16:24:44.007Z,98874.66
2022-07-29T16:27:12.188Z,98873.25
2022-07-29T16:29:40.099Z,98870.34
2022-07-29T16:32:08.068Z,98872.47
2022-07-29T16:34:36.292Z,98866.75
2022-07-29T16:37:04.836Z,98865.28
2022-07-29T16:39:33.048Z,98870.88
2022-07-29T16:42:03.980Z,98868.66
2022-07-29T16:44:33.985Z,98869.19
2022-07-29T16:47:03.166Z,98864.66
2022-07-29T16:49:30.988Z,98859.16
2022-07-29T16:51:58.988Z,98859.38
2022-07-29T16:54:27.678Z,98865.19
2022-07-29T16:56:55.962Z,98865.81
2022-07-29T16:59:24.128Z,98858.00
2022-07-29T17:01:52.294Z,98863.41
2022-07-29T17:04:20.107Z,98863.06
2022-07-29T17:06:50.784Z,98860.72
2022-07-29T17:09:19.016Z,98855.16
2022-07-29T17:11:55.103Z,98861.91
2022-07-29T17:14:25.609Z,98864.69
2022-07-29T17:17:00.441Z,98861.47
2022-07-29T17:19:35.653Z,98867.97
2022-07-29T17:22:11.778Z,98870.00
2022-07-29T17:24:42.654Z,98863.91
2022-07-29T17:27:10.600Z,98869.75
2022-07-29T17:29:39.219Z,98867.88
2022-07-29T17:32:09.203Z,98868.34
2022-07-29T17:34:38.466Z,98862.62
2022-07-29T17:37:08.243Z,98866.81
2022-07-29T17:39:39.538Z,98863.63
2022-07-29T17:42:09.092Z,98860.88
2022-07-29T17:44:38.017Z,98859.66
2022-07-29T17:47:07.958Z,98855.97
2022-07-29T17:49:45.560Z,98859.72
2022-07-29T17:52:13.506Z,98857.97
2022-07-29T17:54:41.296Z,98869.97
2022-07-29T17:57:09.475Z,98875.69
2022-07-29T17:59:37.696Z,98868.19
2022-07-29T18:02:05.481Z,98879.44
2022-07-29T18:04:33.920Z,98876.84
2022-07-29T18:07:01.996Z,98876.84
2022-07-29T18:09:30.126Z,98880.84
2022-07-29T18:11:58.341Z,98880.84
2022-07-29T18:14:26.188Z,98879.72
2022-07-29T18:16:53.995Z,98877.75
2022-07-29T18:19:22.118Z,98882.50
2022-07-29T18:21:54.493Z,98881.63
2022-07-29T18:24:25.906Z,98881.31
2022-07-29T18:26:54.167Z,98882.44
2022-07-29T18:29:22.318Z,98881.03
2022-07-29T18:31:50.603Z,98879.59
2022-07-29T18:34:18.436Z,98889.47
2022-07-29T18:36:46.976Z,98885.41
2022-07-29T18:39:20.291Z,98896.09
2022-07-29T18:41:52.535Z,98889.22
2022-07-29T18:44:22.037Z,98890.25
2022-07-29T18:46:52.120Z,98895.59
2022-07-29T18:49:20.630Z,98898.16
2022-07-29T18:51:49.205Z,98888.37
2022-07-29T18:54:17.746Z,98889.19
2022-07-29T18:56:46.715Z,98889.00
2022-07-29T18:59:20.135Z,98898.16
2022-07-29T19:01:49.124Z,98898.19
2022-07-29T19:04:17.607Z,98897.53
2022-07-29T19:06:45.755Z,98903.53
2022-07-29T19:09:14.051Z,98904.53
2022-07-29T19:11:42.349Z,98909.63
2022-07-29T19:14:10.175Z,98918.84
2022-07-29T19:16:38.376Z,98923.78
2022-07-29T19:19:07.427Z,98924.84
2022-07-29T19:21:36.108Z,98923.88
2022-07-29T19:24:07.394Z,98923.00
2022-07-29T19:26:41.089Z,98917.59
2022-07-29T19:29:09.646Z,98924.34
2022-07-29T19:31:37.442Z,98921.56
2022-07-29T19:34:05.380Z,98924.16
2022-07-29T19:36:33.920Z,98928.28
2022-07-29T19:39:01.967Z,98931.06
2022-07-29T19:41:29.895Z,98923.88
2022-07-29T19:43:58.390Z,98917.94
2022-07-29T19:46:29.147Z,98916.31
2022-07-29T19:48:57.299Z,98925.63
2022-07-29T19:51:25.937Z,98914.88
2022-07-29T19:53:53.795Z,98917.06
2022-07-29T19:56:21.556Z,98911.34
2022-07-29T19:58:52.735Z,98907.69
2022-07-29T20:01:20.922Z,98911.94
2022-07-29T20:03:49.324Z,98912.00
2022-07-29T20:06:18.049Z,98911.84
2022-07-29T20:08:46.725Z,98905.91
2022-07-29T20:11:14.887Z,98901.06
2022-07-29T20:13:42.755Z,98901.56
2022-07-29T20:16:10.602Z,98897.78
2022-07-29T20:18:38.898Z,98904.44
2022-07-29T20:21:06.839Z,98909.28
2022-07-29T20:23:34.983Z,98907.75
2022-07-29T20:26:06.092Z,98904.31
2022-07-29T20:28:37.427Z,98904.44
2022-07-29T20:31:05.604Z,98904.13
2022-07-29T20:33:33.467Z,98915.38
2022-07-29T20:36:01.287Z,98905.44
2022-07-29T20:38:30.739Z,98920.16
2022-07-29T20:40:59.029Z,98922.66
2022-07-29T20:43:27.491Z,98915.41
2022-07-29T20:45:55.651Z,98924.72
2022-07-29T20:48:23.656Z,98923.19
2022-07-29T20:50:51.665Z,98934.31
2022-07-29T20:53:20.569Z,98927.25
2022-07-29T20:55:48.788Z,98931.03
2022-07-29T20:58:16.531Z,98939.28
2022-07-29T21:00:44.880Z,98941.78
2022-07-29T21:03:12.706Z,98949.09
2022-07-29T21:05:44.038Z,98949.34
2022-07-29T21:08:12.477Z,98954.50
2022-07-29T21:10:40.330Z,98952.31
2022-07-29T21:13:08.315Z,98949.78
2022-07-29T21:15:36.790Z,98945.94
2022-07-29T21:18:06.236Z,98954.59
2022-07-29T21:20:34.080Z,98955.03
2022-07-29T21:23:02.245Z,98957.56
2022-07-29T21:25:30.188Z,98948.69
2022-07-29T21:28:16.777Z,98953.94
2022-07-29T21:30:45.066Z,98958.59
2022-07-29T21:33:12.991Z,98956.06
2022-07-29T21:36:02.136Z,98958.91
2022-07-29T21:38:30.406Z,98968.81
2022-07-29T21:40:58.855Z,98969.88
2022-07-29T21:43:28.656Z,98982.53
2022-07-29T21:45:58.264Z,98970.66
2022-07-29T21:48:27.637Z,98966.66
2022-07-29T21:50:55.636Z,98972.87
2022-07-29T21:53:26.717Z,98970.25
2022-07-29T21:55:55.312Z,98971.87
2022-07-29T21:58:25.026Z,98969.97
2022-07-29T22:00:52.997Z,98977.44
2022-07-29T22:03:21.195Z,98973.53
2022-07-29T22:05:49.197Z,98975.28
2022-07-29T22:08:17.080Z,98972.16
2022-07-29T22:10:45.097Z,98979.66
2022-07-29T22:13:12.867Z,98978.44
2022-07-29T22:15:45.388Z,98977.94
2022-07-29T22:18:20.930Z,98982.78
2022-07-29T22:20:50.007Z,98983.16
2022-07-29T22:23:18.219Z,98983.28
2022-07-29T22:25:45.998Z,98980.34
2022-07-29T22:28:13.841Z,98977.72
2022-07-29T22:30:42.070Z,98984.59
2022-07-29T22:33:09.933Z,98981.97
2022-07-29T22:35:48.433Z,98990.94
2022-07-29T22:38:18.196Z,98983.03
2022-07-29T22:40:48.776Z,98979.66
2022-07-29T22:43:18.457Z,98982.44
2022-07-29T22:45:46.732Z,98976.94
2022-07-29T22:48:14.628Z,98977.47
2022-07-29T22:50:42.519Z,98968.25
2022-07-29T22:53:10.568Z,98972.63
2022-07-29T22:55:38.407Z,98966.06
2022-07-29T22:58:06.205Z,98967.53
2022-07-29T23:00:34.516Z,98981.22
2022-07-29T23:03:02.278Z,98974.88
2022-07-29T23:05:30.067Z,98968.34
2022-07-29T23:07:58.387Z,98973.09
2022-07-29T23:10:26.259Z,98965.94
2022-07-29T23:12:54.028Z,98959.22
2022-07-29T23:15:22.111Z,98958.56
2022-07-29T23:17:49.876Z,98957.00
2022-07-29T23:20:17.706Z,98951.22
2022-07-29T23:22:45.827Z,98958.53
2022-07-29T23:25:13.577Z,98946.78
2022-07-29T23:27:41.416Z,98944.53
2022-07-29T23:30:10.096Z,98944.38
2022-07-29T23:32:37.917Z,98945.09
2022-07-29T23:35:07.145Z,98933.25
2022-07-29T23:37:35.496Z,98939.59
2022-07-29T23:40:04.665Z,98933.59
2022-07-29T23:42:32.615Z,98926.00
2022-07-29T23:45:00.685Z,98927.59
2022-07-29T23:47:29.178Z,98924.34
2022-07-29T23:49:57.388Z,98919.91
2022-07-29T23:52:25.490Z,98921.34
2022-07-29T23:54:53.596Z,98913.84
2022-07-29T23:57:24.061Z,98916.19
2022-07-29T23:59:53.005Z,98921.63
